McGrew, NE (69353)

7:20 AM MDT on August 31, 2015 (GMT -0600)
Old Stage Hill Road | | Change Station
CLOSE
Current Station
Personal Weather Station
Location: Gering, NE
Elevation: 4360 ft
Nearby Weather Stations

Elev 4360 ft 41.72 °N, 103.67 °W | Updated 10 seconds ago

Overcast
Overcast
74.8 °F
Feels Like 77 °F
N
15.0
Wind Variable Wind from West
Gusts 15.0 mph

Today
High -- | Low -- °F
--% Chance of Precip.
Yesterday
High -- | Low -- °F
Precip. -- in
6:19 AM 7:30 PM
Waning Gibbous, 95% visible
Pressure 29.79 in
Visibility 10.0 miles
Clouds Scattered Clouds 10000 ft
Scattered Clouds 11000 ft
Heat Index 77 °F
Dew Point 49 °F
Humidity 40%
Rainfall 0.00 in
Snow Depth Not available.
UV 0.0 out of 12
Pollen 9.90 out of 12
Air Quality Not available.
Flu Activity Not available.
METAR KBFF 311253Z AUTO 30014G21KT 10SM SCT100 SCT110 23/11 A2995 RMK AO2 SLP086 T02330106
Pressure 29.79 in
Visibility 10.0 miles
Clouds Scattered Clouds 10000 ft
Scattered Clouds 11000 ft
Heat Index 77 °F
Dew Point 49 °F
Humidity 40%
Rainfall 0.00 in
Snow Depth Not available.
UV 0.0 out of 12
Pollen 9.90 out of 12
Air Quality Not available.
Flu Activity Not available.
METAR KBFF 311253Z AUTO 30014G21KT 10SM SCT100 SCT110 23/11 A2995 RMK AO2 SLP086 T02330106

10-Day Weather Forecast

×

Almanac

Astronomy

Aug. 31, 2015 Rise Set
Actual Time
Civil Twilight
Nautical Twilight
Astronomical Twilight
Moon
Length of Visible Light
Length of Day
Tomorrow will be .
, % of the Moon is Illuminated

Today's Extremes

State Highs State Lows

Community

WunderPhotos

Upload Photos

1,851,231 photos uploaded!

WunderBlogs® & News

Nearby

Air Quality

  Air Quality AQ Index Pollutant
Not available.

Snow Depth

Station Depth Elevation

Earthquake Activity

City Distance Mag. Time & Date
Minimum magnitude displayed is 2.5.

Coastal Water Temperatures

Place Temperature

Stations

Nearby Weather Stations

Station Location Temp. Windchill Dew Point Humidity Wind Precip. Elev Updated Type